Time;durP1;ratioP1;P1;durP2;ratioP2;P2;SDS_P1;SDS_P2;PMS_P1;PMS_P2;Temp;Humidity;BMP_temperature;BMP_pressure;BME280_temperature;BME280_humidity;BME280_pressure;Samples;Min_cycle;Max_cycle;Signal;HPM_P1;HPM_P2
2021/11/03 00:00:08;;;;;;;26.35;16.70;;;;;;;7.91;86.21;93342.90;1656338;86;21538;-56
2021/11/03 00:02:36;;;;;;;14.38;9.68;;;;;;;8.07;85.67;93341.77;1656260;86;21003;-56
2021/11/03 00:05:05;;;;;;;7.90;6.58;;;;;;;8.30;84.73;93356.89;1656504;86;21007;-56
2021/11/03 00:07:34;;;;;;;6.20;5.53;;;;;;;8.53;83.39;93362.98;1656384;86;21541;-56
2021/11/03 00:10:03;;;;;;;6.62;5.97;;;;;;;8.78;82.25;93352.88;1653818;86;21103;-56
2021/11/03 00:12:32;;;;;;;6.00;5.42;;;;;;;9.01;80.90;93358.93;1656275;86;21011;-56
2021/11/03 00:14:59;;;;;;;5.17;4.67;;;;;;;9.19;79.86;93362.89;1656122;86;20960;-56
2021/11/03 00:17:26;;;;;;;5.90;4.97;;;;;;;9.33;78.38;93360.78;1656328;86;21047;-56
2021/11/03 00:19:52;;;;;;;4.20;3.87;;;;;;;9.48;77.16;93374.67;1656070;84;21638;-56
2021/11/03 00:22:19;;;;;;;5.00;4.58;;;;;;;9.61;75.59;93372.38;1656026;86;21216;-56
2021/11/03 00:24:46;;;;;;;5.50;4.10;;;;;;;9.73;74.89;93371.94;1633174;86;21552;-56
2021/11/03 00:27:12;;;;;;;4.90;4.50;;;;;;;9.81;74.45;93376.58;1656229;86;21011;-56
2021/11/03 00:29:39;;;;;;;4.92;4.37;;;;;;;9.87;73.57;93379.42;1656054;86;20996;-56
2021/11/03 00:32:08;;;;;;;3.87;3.58;;;;;;;9.91;72.72;93375.86;1653947;86;21003;-56
2021/11/03 00:34:35;;;;;;;4.83;4.42;;;;;;;9.97;72.45;93389.08;1655996;86;21151;-56
2021/11/03 00:37:02;;;;;;;4.22;3.92;;;;;;;10.01;71.48;93395.91;1656207;86;21091;-56
2021/11/03 00:39:30;;;;;;;4.15;3.83;;;;;;;10.05;71.19;93383.36;1661468;85;20971;-56
2021/11/03 00:41:57;;;;;;;4.78;4.37;;;;;;;10.09;70.67;93392.92;1685221;85;21022;-55
2021/11/03 00:44:24;;;;;;;5.20;4.70;;;;;;;10.10;70.02;93389.55;1685623;85;21023;-56
2021/11/03 00:46:51;;;;;;;5.22;4.80;;;;;;;10.12;69.78;93398.06;1685587;85;21104;-56
2021/11/03 00:49:18;;;;;;;4.75;4.35;;;;;;;10.14;69.67;93402.49;1685276;85;20971;-56
2021/11/03 00:51:45;;;;;;;4.03;3.70;;;;;;;10.16;69.85;93412.39;1685543;85;21014;-60
2021/11/03 00:54:12;;;;;;;5.20;4.70;;;;;;;10.17;69.67;93411.89;1685178;85;21010;-56
2021/11/03 00:56:40;;;;;;;4.15;3.85;;;;;;;10.18;69.68;93414.04;1685532;85;20979;-56
2021/11/03 00:59:07;;;;;;;3.92;3.62;;;;;;;10.17;69.40;93416.66;1685257;85;21084;-56
2021/11/03 01:01:34;;;;;;;4.28;3.95;;;;;;;10.16;69.35;93416.52;1661925;85;21050;-56
2021/11/03 01:04:01;;;;;;;4.55;4.25;;;;;;;10.14;69.06;93416.98;1685245;85;21019;-56
2021/11/03 01:06:28;;;;;;;5.08;4.58;;;;;;;10.15;68.57;93417.75;1685340;85;20963;-56
2021/11/03 01:08:55;;;;;;;3.85;3.55;;;;;;;10.16;68.85;93430.25;1685257;85;21039;-56
2021/11/03 01:11:24;;;;;;;4.70;4.30;;;;;;;10.15;67.73;93419.86;1683602;85;20999;-55
2021/11/03 01:13:52;;;;;;;7.15;6.37;;;;;;;10.20;68.15;93421.19;1685442;85;21518;-57
2021/11/03 01:16:18;;;;;;;7.20;6.50;;;;;;;10.22;67.41;93429.11;1685589;85;20975;-56
2021/11/03 01:18:45;;;;;;;13.60;12.20;;;;;;;10.25;67.31;93434.25;1685317;85;21015;-57
2021/11/03 01:21:11;;;;;;;8.40;7.60;;;;;;;10.26;67.52;93446.76;1685436;85;21090;-57
2021/11/03 01:23:38;;;;;;;6.30;5.62;;;;;;;10.24;67.23;93456.09;1685272;85;21132;-56
2021/11/03 01:26:05;;;;;;;6.65;5.87;;;;;;;10.21;67.38;93450.19;1684962;85;21015;-56
2021/11/03 01:28:31;;;;;;;8.38;7.12;;;;;;;10.19;67.21;93459.52;1685319;85;21117;-56
2021/11/03 01:30:58;;;;;;;6.33;5.72;;;;;;;10.16;66.88;93448.11;1685296;84;21035;-55
2021/11/03 01:33:24;;;;;;;9.25;8.25;;;;;;;10.14;66.95;93450.58;1685092;85;21018;-56
2021/11/03 01:35:51;;;;;;;6.03;5.42;;;;;;;10.12;66.41;93455.77;1685973;85;21951;-55
2021/11/03 01:38:19;;;;;;;6.15;5.25;;;;;;;10.14;66.14;93463.69;1685113;85;21593;-56
2021/11/03 01:40:47;;;;;;;5.05;4.58;;;;;;;10.16;65.91;93470.09;1685187;85;21062;-56
2021/11/03 01:43:38;;;;;;;7.75;6.92;;;;;;;10.16;65.82;93478.34;1685242;85;21002;-55
2021/11/03 01:46:31;;;;;;;4.30;4.00;;;;;;;10.18;65.55;93469.00;1685319;85;21003;-56
2021/11/03 01:49:18;;;;;;;4.00;3.70;;;;;;;10.20;64.98;93472.03;1662735;85;21168;-56
2021/11/03 01:51:55;;;;;;;3.67;3.45;;;;;;;10.20;65.22;93481.02;1674107;84;20959;-55
2021/11/03 01:54:50;;;;;;;3.35;3.15;;;;;;;10.17;64.71;93486.72;1683463;85;21105;-55
2021/11/03 01:57:30;;;;;;;4.83;4.42;;;;;;;10.18;64.93;93486.23;1685108;85;21467;-56
2021/11/03 01:59:59;;;;;;;5.28;4.78;;;;;;;10.17;64.85;93486.09;1684231;85;21016;-56
2021/11/03 02:02:28;;;;;;;6.05;5.10;;;;;;;10.16;64.35;93481.09;1685179;85;21452;-55
2021/11/03 02:04:54;;;;;;;5.15;4.75;;;;;;;10.15;64.26;93496.80;1685609;85;21486;-56
2021/11/03 02:07:26;;;;;;;5.87;5.35;;;;;;;10.14;64.19;93481.55;1685502;85;20982;-57
2021/11/03 02:09:54;;;;;;;10.50;9.40;;;;;;;10.12;64.34;93494.23;1684930;85;21563;-56
2021/11/03 02:12:25;;;;;;;7.33;6.62;;;;;;;10.09;64.00;93502.06;1685660;85;21054;-56
2021/11/03 02:14:53;;;;;;;4.12;3.75;;;;;;;10.06;63.85;93498.89;1686648;85;21118;-56
2021/11/03 02:17:21;;;;;;;3.80;3.50;;;;;;;10.04;64.08;93497.23;1685376;85;20971;-56
2021/11/03 02:19:48;;;;;;;6.05;5.55;;;;;;;10.00;64.17;93485.66;1685067;83;20975;-55
2021/11/03 02:22:56;;;;;;;4.62;3.90;;;;;;;9.96;63.70;93490.58;1685149;85;20999;-56
2021/11/03 02:25:27;;;;;;;3.08;2.87;;;;;;;9.95;63.30;93494.56;1660657;84;21085;-56
2021/11/03 02:27:54;;;;;;;5.58;2.98;;;;;;;9.95;63.46;93505.55;1685463;85;21134;-57
2021/11/03 02:30:23;;;;;;;3.65;3.35;;;;;;;9.93;63.48;93503.27;1661855;85;21534;-56
2021/11/03 02:33:03;;;;;;;3.87;3.58;;;;;;;9.92;63.66;93513.34;1685631;85;20967;-56
2021/11/03 02:35:31;;;;;;;3.17;2.98;;;;;;;9.88;63.72;93517.66;1685338;84;20951;-56
2021/11/03 02:37:58;;;;;;;2.92;2.72;;;;;;;9.81;64.07;93511.16;1685299;85;21010;-56
2021/11/03 02:40:34;;;;;;;3.35;3.15;;;;;;;9.73;64.32;93527.09;1685127;85;21108;-57
2021/11/03 02:43:05;;;;;;;3.72;3.42;;;;;;;9.66;63.85;93521.98;1685396;85;21049;-56
2021/11/03 02:45:48;;;;;;;4.17;3.87;;;;;;;9.61;64.00;93545.34;1685061;85;21007;-56
2021/11/03 02:48:16;;;;;;;3.00;2.90;;;;;;;9.59;64.37;93549.17;1685432;85;21055;-56
2021/11/03 02:50:57;;;;;;;3.05;2.85;;;;;;;9.54;64.37;93544.94;1685286;85;21082;-55
2021/11/03 02:53:26;;;;;;;4.00;3.70;;;;;;;9.52;64.51;93557.78;1686401;84;21139;-56
2021/11/03 02:55:53;;;;;;;3.85;3.55;;;;;;;9.48;64.62;93561.33;1685122;84;21070;-56
2021/11/03 02:58:20;;;;;;;3.27;3.08;;;;;;;9.43;64.50;93564.69;1661933;85;21011;-56
2021/11/03 03:00:48;;;;;;;3.77;3.47;;;;;;;9.41;64.73;93579.50;1685092;85;21015;-56
2021/11/03 03:03:15;;;;;;;2.90;2.70;;;;;;;9.37;64.75;93576.78;1685188;85;21027;-56
2021/11/03 03:05:47;;;;;;;3.02;2.83;;;;;;;9.35;64.71;93591.59;1685322;84;21781;-55
2021/11/03 03:08:14;;;;;;;2.85;2.70;;;;;;;9.33;64.66;93595.41;1679157;85;20990;-55
2021/11/03 03:10:41;;;;;;;2.72;2.60;;;;;;;9.31;64.69;93600.61;1685171;85;21011;-56
2021/11/03 03:13:08;;;;;;;3.35;2.70;;;;;;;9.29;64.59;93600.32;1685272;85;20991;-55
2021/11/03 03:15:36;;;;;;;3.42;3.20;;;;;;;9.27;64.48;93600.03;1685085;85;21549;-56
2021/11/03 03:18:03;;;;;;;6.12;4.95;;;;;;;9.24;64.60;93609.20;1685071;85;23188;-57
2021/11/03 03:20:31;;;;;;;10.65;7.12;;;;;;;9.20;64.74;93612.70;1685017;83;21443;-55
2021/11/03 03:22:58;;;;;;;15.95;12.05;;;;;;;9.17;64.92;93616.38;1685439;85;21424;-56
2021/11/03 03:25:27;;;;;;;19.92;14.38;;;;;;;9.15;65.13;93621.58;1685139;85;21054;-55
2021/11/03 03:27:55;;;;;;;34.03;23.73;;;;;;;9.13;65.22;93630.89;1661753;85;21506;-55
2021/11/03 03:30:25;;;;;;;22.02;17.10;;;;;;;9.11;65.37;93636.83;1685327;84;21497;-56
2021/11/03 03:32:52;;;;;;;19.20;14.70;;;;;;;9.10;65.58;93639.42;1685200;85;21050;-56
2021/11/03 03:35:19;;;;;;;6.12;5.53;;;;;;;9.07;65.74;93637.61;1685237;85;21027;-55
2021/11/03 03:37:49;;;;;;;6.28;5.72;;;;;;;9.01;65.85;93651.05;1684770;85;21467;-56
2021/11/03 03:40:17;;;;;;;6.67;5.22;;;;;;;8.98;65.90;93649.23;1685251;85;21070;-56
2021/11/03 03:42:44;;;;;;;10.90;7.80;;;;;;;8.94;65.94;93654.13;1661502;85;21800;-55
2021/11/03 03:45:11;;;;;;;9.38;6.67;;;;;;;8.90;65.93;93669.38;1684826;85;21003;-56
2021/11/03 03:47:40;;;;;;;17.10;10.68;;;;;;;8.87;66.00;93672.89;1685069;85;21435;-55
2021/11/03 03:50:08;;;;;;;14.03;9.98;;;;;;;8.83;66.02;93670.94;1685130;85;20979;-55
2021/11/03 03:52:35;;;;;;;18.10;12.58;;;;;;;8.81;66.02;93679.61;1662695;84;21030;-55
2021/11/03 03:55:04;;;;;;;15.32;10.40;;;;;;;8.76;66.01;93683.61;1685131;85;21117;-55
2021/11/03 03:57:31;;;;;;;8.88;6.10;;;;;;;8.68;66.12;93681.02;1685155;85;21462;-55
2021/11/03 03:59:58;;;;;;;6.40;5.55;;;;;;;8.60;66.33;93683.31;1685118;85;21098;-56
2021/11/03 04:02:26;;;;;;;5.50;4.97;;;;;;;8.53;66.59;93687.76;1684529;85;20998;-56
2021/11/03 04:04:53;;;;;;;5.35;4.80;;;;;;;8.45;66.83;93698.86;1685086;85;21050;-56
2021/11/03 04:07:20;;;;;;;6.55;5.37;;;;;;;8.34;66.99;93704.66;1685198;84;21140;-55
2021/11/03 04:09:47;;;;;;;12.10;8.75;;;;;;;8.26;67.35;93704.83;1684950;85;20951;-55
2021/11/03 04:12:16;;;;;;;10.93;8.15;;;;;;;8.22;67.51;93720.05;1685288;84;21482;-57
2021/11/03 04:14:43;;;;;;;11.53;9.43;;;;;;;8.18;67.56;93722.77;1684854;85;21034;-56
2021/11/03 04:17:10;;;;;;;20.50;12.13;;;;;;;8.11;67.70;93723.80;1685169;84;20979;-56
2021/11/03 04:19:38;;;;;;;24.07;13.93;;;;;;;8.08;67.98;93731.56;1685065;83;20951;-57
2021/11/03 04:22:05;;;;;;;23.60;13.30;;;;;;;8.08;68.16;93734.30;1684612;85;21055;-56
2021/11/03 04:24:36;;;;;;;13.72;10.28;;;;;;;8.08;68.33;93750.73;1684293;85;21014;-57
2021/11/03 04:27:05;;;;;;;19.50;13.78;;;;;;;8.05;68.24;93766.72;1685503;84;21026;-56
2021/11/03 04:29:32;;;;;;;17.27;10.75;;;;;;;8.04;68.36;93768.55;1685337;84;21665;-55
2021/11/03 04:31:59;;;;;;;9.28;7.37;;;;;;;8.03;68.50;93771.89;1684769;85;21077;-56
2021/11/03 04:34:27;;;;;;;6.70;6.03;;;;;;;8.05;68.52;93777.67;1684957;85;21026;-56
2021/11/03 04:36:55;;;;;;;5.30;4.80;;;;;;;8.14;68.38;93768.70;1675170;85;21014;-55
2021/11/03 04:39:22;;;;;;;5.95;5.45;;;;;;;8.27;68.19;93778.33;1661605;85;21062;-55
2021/11/03 04:41:50;;;;;;;6.83;6.20;;;;;;;8.38;67.97;93778.66;1685245;85;21462;-56
2021/11/03 04:44:17;;;;;;;8.05;6.90;;;;;;;8.46;67.80;93789.45;1685264;85;21152;-55
2021/11/03 04:46:44;;;;;;;8.03;6.42;;;;;;;8.53;67.62;93797.98;1685142;85;21514;-56
2021/11/03 04:49:13;;;;;;;7.12;6.42;;;;;;;8.56;67.62;93792.36;1685333;85;20958;-55
2021/11/03 04:51:40;;;;;;;8.98;7.40;;;;;;;8.57;67.64;93793.88;1685006;85;21030;-56
2021/11/03 04:54:08;;;;;;;8.00;6.90;;;;;;;8.59;67.70;93803.78;1681856;84;21047;-56
2021/11/03 04:56:37;;;;;;;7.00;6.30;;;;;;;8.65;67.69;93811.54;1661473;85;21063;-56
2021/11/03 04:59:04;;;;;;;6.37;5.78;;;;;;;8.66;67.63;93811.69;1684764;85;21062;-55
2021/11/03 05:01:32;;;;;;;8.05;6.33;;;;;;;8.64;67.65;93808.64;1684848;85;20956;-56
2021/11/03 05:03:59;;;;;;;6.80;6.10;;;;;;;8.61;67.78;93819.16;1685086;85;21018;-56
2021/11/03 05:06:30;;;;;;;5.10;4.70;;;;;;;8.59;67.84;93821.59;1684602;85;20995;-58
2021/11/03 05:08:59;;;;;;;5.62;5.08;;;;;;;8.61;67.84;93827.38;1685357;84;21133;-56
2021/11/03 05:11:26;;;;;;;5.83;5.33;;;;;;;8.62;67.83;93824.79;1685075;85;21003;-57
2021/11/03 05:13:53;;;;;;;5.78;4.95;;;;;;;8.62;67.81;93817.94;1685071;85;21054;-58
2021/11/03 05:16:22;;;;;;;6.58;5.97;;;;;;;8.58;67.86;93825.55;1684700;85;21435;-57
2021/11/03 05:18:50;;;;;;;7.78;6.90;;;;;;;8.51;68.13;93827.83;1685325;83;21022;-56
2021/11/03 05:21:17;;;;;;;8.90;7.08;;;;;;;8.50;68.34;93835.31;1685591;84;21964;-57
2021/11/03 05:23:45;;;;;;;7.62;6.78;;;;;;;8.51;68.44;93834.09;1684919;85;21058;-57
2021/11/03 05:26:16;;;;;;;11.15;8.45;;;;;;;8.55;68.44;93838.81;1684997;85;20964;-57
2021/11/03 05:28:47;;;;;;;12.70;10.30;;;;;;;8.59;68.57;93840.78;1685241;85;21018;-57
2021/11/03 05:31:14;;;;;;;13.10;10.28;;;;;;;8.66;68.45;93847.95;1685080;85;21062;-58
2021/11/03 05:33:41;;;;;;;18.92;13.25;;;;;;;8.69;68.59;93844.30;1684749;85;21101;-58
2021/11/03 05:36:08;;;;;;;20.23;12.85;;;;;;;8.67;68.06;93848.88;1661414;85;20962;-58
2021/11/03 05:38:35;;;;;;;12.75;8.98;;;;;;;8.65;68.10;93864.25;1661671;85;21026;-57
2021/11/03 05:41:01;;;;;;;16.82;12.75;;;;;;;8.63;67.99;93861.95;1684729;85;21015;-56
2021/11/03 05:43:28;;;;;;;7.42;6.37;;;;;;;8.67;68.00;93870.03;1685330;85;20991;-57
2021/11/03 05:45:55;;;;;;;7.15;6.45;;;;;;;8.69;67.73;93873.08;1684800;85;21821;-57
2021/11/03 05:48:26;;;;;;;7.10;6.40;;;;;;;8.78;67.43;93877.97;1661539;85;20967;-59
2021/11/03 05:50:54;;;;;;;10.70;7.97;;;;;;;8.89;67.26;93883.77;1685518;84;21022;-57
2021/11/03 05:53:20;;;;;;;18.45;9.88;;;;;;;8.97;67.02;93881.64;1685246;85;20967;-58
2021/11/03 05:55:47;;;;;;;12.98;10.40;;;;;;;9.05;66.94;93884.21;1684695;85;20973;-58
2021/11/03 05:58:14;;;;;;;9.70;7.80;;;;;;;9.17;66.71;93886.05;1685163;85;21157;-58
2021/11/03 06:00:41;;;;;;;8.43;7.62;;;;;;;9.31;66.34;93895.63;1684741;85;21002;-57
2021/11/03 06:03:07;;;;;;;16.30;8.88;;;;;;;9.41;65.95;93910.88;1662068;85;21458;-58
2021/11/03 06:05:34;;;;;;;17.77;8.45;;;;;;;9.51;65.78;93909.03;1684959;85;21026;-57
2021/11/03 06:08:05;;;;;;;12.23;7.90;;;;;;;9.60;65.69;93912.38;1662009;85;21042;-58
2021/11/03 06:10:38;;;;;;;10.45;9.30;;;;;;;9.66;65.45;93920.13;1685285;84;21478;-58
2021/11/03 06:13:10;;;;;;;14.28;7.97;;;;;;;9.77;64.64;93922.55;1685342;84;21406;-58
2021/11/03 06:15:37;;;;;;;12.28;8.90;;;;;;;9.88;64.50;93931.08;1684733;85;21022;-56
2021/11/03 06:18:06;;;;;;;25.82;16.10;;;;;;;9.96;64.16;93932.89;1684913;85;21503;-56
2021/11/03 06:20:33;;;;;;;15.48;8.78;;;;;;;10.02;63.77;93940.05;1684866;83;21057;-58
2021/11/03 06:23:00;;;;;;;8.53;6.67;;;;;;;10.08;63.39;93942.94;1662051;85;21100;-57
2021/11/03 06:25:27;;;;;;;17.65;8.38;;;;;;;10.13;62.87;93940.33;1661332;85;21003;-57
2021/11/03 06:27:55;;;;;;;13.95;10.38;;;;;;;10.18;62.93;93941.07;1685234;85;21125;-60
2021/11/03 06:30:26;;;;;;;10.40;8.45;;;;;;;10.28;62.17;93944.55;1685241;85;21100;-58
2021/11/03 06:32:53;;;;;;;19.00;13.32;;;;;;;10.39;61.46;93944.19;1685719;84;21069;-57
2021/11/03 06:35:21;;;;;;;14.87;9.00;;;;;;;10.50;61.12;93953.34;1685313;85;21205;-58
2021/11/03 06:37:50;;;;;;;10.25;8.55;;;;;;;10.58;61.17;93958.63;1685714;84;20960;-58
2021/11/03 06:40:19;;;;;;;9.50;6.50;;;;;;;10.63;60.66;93957.98;1694924;84;21005;-59
2021/11/03 06:42:46;;;;;;;7.78;7.05;;;;;;;10.70;60.25;93966.66;1683911;82;21023;-60
2021/11/03 06:45:14;;;;;;;6.37;5.20;;;;;;;10.73;60.25;93969.10;1674457;83;21097;-58
2021/11/03 06:47:41;;;;;;;8.53;6.40;;;;;;;10.73;59.49;93978.88;1671574;84;21168;-60
2021/11/03 06:50:08;;;;;;;5.42;4.92;;;;;;;10.73;59.31;93976.73;1692480;83;21569;-58
2021/11/03 06:52:37;;;;;;;9.63;6.47;;;;;;;10.67;59.45;93984.70;1699838;83;21009;-60
2021/11/03 06:55:06;;;;;;;9.45;6.15;;;;;;;10.64;59.64;93989.77;1664034;83;21066;-61
2021/11/03 06:57:35;;;;;;;11.90;7.47;;;;;;;10.60;59.44;93993.30;1708881;83;21064;-60
2021/11/03 07:00:08;;;;;;;12.03;6.45;;;;;;;10.55;59.42;94007.06;1719899;82;21147;-56
2021/11/03 07:02:36;;;;;;;14.30;8.05;;;;;;;10.50;59.31;94013.83;1684767;84;21070;-60
2021/11/03 07:05:04;;;;;;;10.13;6.08;;;;;;;10.46;59.30;94011.84;1704165;82;21052;-64
2021/11/03 07:07:31;;;;;;;7.97;6.15;;;;;;;10.43;59.26;94016.89;1704010;82;21138;-66
2021/11/03 07:09:59;;;;;;;6.22;4.55;;;;;;;10.45;59.26;94022.69;1683838;83;21018;-60
2021/11/03 07:12:25;;;;;;;10.88;5.55;;;;;;;10.53;58.94;94026.65;1688876;82;21145;-62
2021/11/03 07:14:52;;;;;;;5.42;4.67;;;;;;;10.60;58.87;94035.34;1695431;83;21081;-61
2021/11/03 07:17:19;;;;;;;7.72;5.33;;;;;;;10.72;58.33;94036.36;1691428;81;20957;-61
2021/11/03 07:19:47;;;;;;;7.05;6.45;;;;;;;10.84;58.29;94027.27;1699072;82;21831;-62
2021/11/03 07:22:14;;;;;;;6.05;5.28;;;;;;;11.03;57.89;94029.32;1696445;82;21145;-60
2021/11/03 07:24:40;;;;;;;12.07;5.97;;;;;;;11.21;57.40;94029.97;1694736;83;21166;-62
2021/11/03 07:27:07;;;;;;;8.05;4.72;;;;;;;11.39;56.67;94017.45;1687668;83;21069;-59
2021/11/03 07:29:34;;;;;;;6.97;4.80;;;;;;;11.48;55.80;94019.39;1691673;83;21181;-58
2021/11/03 07:32:01;;;;;;;10.60;6.22;;;;;;;11.52;55.76;94014.48;1685397;83;21059;-61
2021/11/03 07:34:29;;;;;;;7.33;4.90;;;;;;;11.59;55.47;94016.30;1682759;83;22213;-62
2021/11/03 07:36:56;;;;;;;8.43;7.40;;;;;;;11.63;54.17;94021.00;1699685;82;21808;-61
2021/11/03 07:39:23;;;;;;;9.23;6.90;;;;;;;11.59;53.79;94028.69;1715168;80;21097;-60
2021/11/03 07:41:51;;;;;;;7.65;5.95;;;;;;;11.54;53.56;94030.67;1698163;82;21088;-58
2021/11/03 07:44:20;;;;;;;10.35;5.37;;;;;;;11.51;53.74;94035.00;1695859;82;21015;-58
2021/11/03 07:46:46;;;;;;;10.05;7.33;;;;;;;11.51;54.21;94032.98;1713870;81;21107;-65
2021/11/03 07:49:13;;;;;;;8.45;5.55;;;;;;;11.52;54.29;94033.13;1708707;81;21126;-64
2021/11/03 07:51:40;;;;;;;24.87;13.00;;;;;;;11.53;54.11;94038.04;1688425;82;21398;-60
2021/11/03 07:54:07;;;;;;;7.30;5.25;;;;;;;11.61;54.19;94041.98;1711345;82;21098;-61
2021/11/03 07:56:37;;;;;;;4.40;3.60;;;;;;;11.74;53.61;94048.76;1696980;82;21020;-61
2021/11/03 07:59:04;;;;;;;4.90;3.72;;;;;;;11.82;52.91;94047.18;1697345;81;21052;-62
2021/11/03 08:01:33;;;;;;;8.28;4.55;;;;;;;11.89;52.52;94057.83;1679843;83;21182;-62
2021/11/03 08:04:00;;;;;;;5.80;3.35;;;;;;;11.96;52.49;94061.62;1697521;81;21045;-65
2021/11/03 08:06:28;;;;;;;3.80;3.35;;;;;;;11.92;51.95;94064.41;1688856;82;21115;-66
2021/11/03 08:11:28;;;;;;;7.33;3.60;;;;;;;11.72;52.38;94066.38;1705167;81;21091;-61
2021/11/03 08:13:55;;;;;;;8.08;6.00;;;;;;;11.57;52.36;94076.58;1700189;82;21162;-64
2021/11/03 08:16:22;;;;;;;4.78;3.87;;;;;;;11.46;52.70;94072.20;1664835;83;21156;-61
2021/11/03 08:18:49;;;;;;;3.40;3.10;;;;;;;11.44;52.53;94074.67;1693968;82;21503;-63
2021/11/03 08:21:16;;;;;;;4.90;3.65;;;;;;;11.53;52.26;94077.98;1690273;82;22237;-62
2021/11/03 08:23:43;;;;;;;8.53;4.08;;;;;;;11.60;52.12;94082.55;1680210;81;21081;-73
2021/11/03 08:26:10;;;;;;;4.55;2.90;;;;;;;11.62;51.71;94093.86;1691376;82;21163;-61
2021/11/03 08:28:37;;;;;;;6.58;4.03;;;;;;;11.57;51.16;94093.11;1695705;82;21024;-62
2021/11/03 08:31:04;;;;;;;5.25;3.35;;;;;;;11.55;51.55;94095.55;1699113;82;21345;-62
2021/11/03 08:33:40;;;;;;;4.28;3.22;;;;;;;11.53;50.96;94095.25;1690279;82;21105;-59
2021/11/03 08:36:08;;;;;;;3.35;3.05;;;;;;;11.56;50.96;94097.09;1693198;83;21526;-60
2021/11/03 08:38:35;;;;;;;4.05;3.00;;;;;;;11.51;50.77;94097.72;1691862;83;21180;-60
2021/11/03 08:41:02;;;;;;;4.12;3.67;;;;;;;11.55;51.13;94100.31;1697111;83;21102;-61
2021/11/03 08:43:32;;;;;;;7.60;4.33;;;;;;;11.63;50.88;94098.14;1685290;81;21525;-61
2021/11/03 08:46:01;;;;;;;5.35;4.15;;;;;;;11.70;50.21;94107.42;1676855;82;21073;-64
2021/11/03 08:48:28;;;;;;;11.63;5.28;;;;;;;11.73;50.01;94105.73;1699340;82;21529;-63
2021/11/03 08:50:57;;;;;;;5.65;4.20;;;;;;;11.82;49.63;94105.05;1679270;82;21610;-63
2021/11/03 08:53:25;;;;;;;6.35;4.97;;;;;;;12.06;49.41;94106.41;1667446;83;21042;-63
2021/11/03 08:55:53;;;;;;;7.35;5.35;;;;;;;12.31;48.81;94101.14;1703769;83;21416;-64
2021/11/03 08:58:21;;;;;;;6.20;5.58;;;;;;;12.51;47.87;94103.24;1690415;82;22071;-64
2021/11/03 09:00:51;;;;;;;7.80;4.85;;;;;;;12.72;47.03;94108.40;1664102;84;21013;-62
2021/11/03 09:03:20;;;;;;;6.70;3.70;;;;;;;12.87;46.50;94103.64;1631011;85;21186;-62
2021/11/03 09:05:48;;;;;;;7.22;4.50;;;;;;;13.03;45.69;94111.44;1688514;83;21086;-62
2021/11/03 09:08:16;;;;;;;4.97;3.20;;;;;;;13.12;45.87;94112.09;1673208;83;21109;-63
2021/11/03 09:10:47;;;;;;;3.08;2.85;;;;;;;13.26;45.08;94121.62;1689036;82;21107;-63
2021/11/03 09:13:23;;;;;;;9.85;3.50;;;;;;;13.32;44.28;94122.45;1704511;83;21092;-62
2021/11/03 09:15:52;;;;;;;6.15;3.42;;;;;;;13.36;44.39;94122.41;1671494;84;21156;-61
2021/11/03 09:18:22;;;;;;;5.42;3.45;;;;;;;13.46;44.15;94119.65;1650982;85;21139;-61
2021/11/03 09:20:51;;;;;;;4.97;2.75;;;;;;;13.53;43.89;94127.56;1695922;82;21100;-63
2021/11/03 09:23:24;;;;;;;5.35;3.55;;;;;;;13.66;43.64;94132.13;1675425;82;21079;-59
2021/11/03 09:25:54;;;;;;;3.37;3.08;;;;;;;13.79;43.52;94143.62;1664390;83;21154;-62
2021/11/03 09:28:23;;;;;;;8.83;2.90;;;;;;;13.91;42.67;94142.55;1700144;82;22251;-58
2021/11/03 09:30:53;;;;;;;7.47;3.37;;;;;;;13.98;42.86;94138.61;1700132;83;21027;-60
2021/11/03 09:33:22;;;;;;;5.17;3.22;;;;;;;14.06;42.99;94141.09;1706067;82;22254;-62
2021/11/03 09:35:50;;;;;;;5.67;3.50;;;;;;;14.14;42.36;94146.36;1700859;83;21541;-61
2021/11/03 09:38:23;;;;;;;2.95;2.70;;;;;;;14.30;41.93;94145.81;1693383;83;21639;-60
2021/11/03 09:41:01;;;;;;;10.13;3.80;;;;;;;14.62;41.46;94145.45;1691319;82;21162;-60
2021/11/03 09:43:48;;;;;;;3.10;2.80;;;;;;;15.14;40.67;94145.59;1695536;81;21032;-65
2021/11/03 09:46:37;;;;;;;14.43;3.12;;;;;;;15.59;39.34;94137.77;1672159;83;21152;-59
2021/11/03 09:49:36;;;;;;;3.87;2.67;;;;;;;16.03;38.92;94142.20;1708205;82;21042;-61
2021/11/03 09:52:20;;;;;;;6.75;2.67;;;;;;;16.38;37.95;94136.48;1684022;82;21110;-62
2021/11/03 09:54:50;;;;;;;5.50;2.60;;;;;;;16.57;37.61;94139.69;1706996;82;21145;-59
2021/11/03 09:57:58;;;;;;;2.80;2.58;;;;;;;16.71;37.68;94136.59;1704404;82;21082;-61
2021/11/03 10:00:50;;;;;;;6.15;3.02;;;;;;;16.81;37.01;94148.98;1661189;83;21199;-65
2021/11/03 10:04:02;;;;;;;34.40;5.67;;;;;;;16.72;36.90;94143.67;1696539;81;21045;-61
2021/11/03 10:06:59;;;;;;;3.33;2.95;;;;;;;16.61;36.85;94136.69;1689971;82;21016;-61
2021/11/03 10:09:27;;;;;;;6.42;3.00;;;;;;;16.63;36.73;94148.05;1706828;82;21947;-62
2021/11/03 10:11:54;;;;;;;9.05;3.17;;;;;;;16.80;36.77;94146.08;1671485;83;21490;-60
2021/11/03 10:14:22;;;;;;;5.08;2.60;;;;;;;16.97;36.64;94156.61;1701382;82;21097;-58
2021/11/03 10:16:52;;;;;;;5.28;3.22;;;;;;;17.23;36.10;94162.70;1693592;83;21505;-65
2021/11/03 10:19:32;;;;;;;3.85;2.25;;;;;;;17.50;35.39;94159.23;1688725;82;21073;-59
2021/11/03 10:22:05;;;;;;;7.95;2.95;;;;;;;17.54;35.12;94170.23;1691223;82;21770;-61
2021/11/03 10:24:44;;;;;;;6.45;3.22;;;;;;;17.51;35.31;94168.47;1701227;83;21029;-60
2021/11/03 10:27:19;;;;;;;3.75;2.62;;;;;;;17.49;35.10;94174.39;1707590;83;21616;-66
2021/11/03 10:29:51;;;;;;;4.37;2.70;;;;;;;17.65;34.77;94175.03;1676931;84;21077;-61
2021/11/03 10:32:37;;;;;;;6.55;3.72;;;;;;;17.68;34.56;94175.41;1665994;84;21006;-62
2021/11/03 10:35:38;;;;;;;3.27;2.95;;;;;;;17.75;34.64;94170.72;1656791;84;21834;-60
2021/11/03 10:38:18;;;;;;;6.43;2.33;;;;;;;18.05;34.43;94169.66;1651962;86;21012;-60
2021/11/03 10:40:56;;;;;;;6.17;3.00;;;;;;;18.27;33.61;94173.19;1649030;85;21614;-58
2021/11/03 10:43:43;;;;;;;7.15;2.92;;;;;;;18.12;33.71;94179.52;1694062;82;21059;-60
2021/11/03 10:46:24;;;;;;;8.65;4.28;;;;;;;17.79;34.33;94176.81;1697796;82;21505;-59
2021/11/03 10:49:23;;;;;;;3.58;2.65;;;;;;;17.59;34.90;94181.21;1697433;82;21150;-60
2021/11/03 10:52:19;;;;;;;6.35;2.90;;;;;;;17.38;34.70;94184.11;1695042;82;21098;-62
2021/11/03 10:54:56;;;;;;;7.40;3.30;;;;;;;17.21;35.13;94174.95;1682932;83;21482;-58
2021/11/03 10:57:32;;;;;;;4.55;2.37;;;;;;;17.42;35.24;94180.47;1664551;84;21100;-62
2021/11/03 11:00:08;;;;;;;9.38;3.72;;;;;;;17.82;34.79;94182.75;1697894;82;21601;-59
2021/11/03 11:02:39;;;;;;;14.83;3.40;;;;;;;18.23;34.11;94179.63;1689560;82;21331;-60
2021/11/03 11:05:08;;;;;;;3.70;2.50;;;;;;;18.51;33.66;94177.58;1683734;82;21067;-61
2021/11/03 11:07:42;;;;;;;7.05;3.45;;;;;;;18.30;33.40;94174.21;1699148;82;21325;-62
2021/11/03 11:10:31;;;;;;;;;;;;;;;17.88;34.51;94167.56;1697534;82;21052;-60
2021/11/03 11:13:00;;;;;;;16.75;3.00;;;;;;;18.01;34.75;94171.20;1709882;82;20132;-64
2021/11/03 11:15:42;;;;;;;8.68;3.55;;;;;;;18.70;33.73;94178.52;1710358;82;22437;-61
2021/11/03 11:18:46;;;;;;;6.42;3.10;;;;;;;19.29;32.87;94160.60;1664116;83;21066;-61
2021/11/03 11:21:23;;;;;;;6.10;4.28;;;;;;;19.89;32.02;94162.80;1712825;81;21038;-59
2021/11/03 11:23:55;;;;;;;3.75;3.12;;;;;;;20.42;31.03;94160.00;1713862;82;21176;-61
2021/11/03 11:26:48;;;;;;;3.42;2.75;;;;;;;20.84;30.56;94149.48;1712166;82;21507;-60
2021/11/03 11:29:42;;;;;;;8.85;4.10;;;;;;;21.12;29.37;94142.89;1698382;83;21364;-60
2021/11/03 11:32:26;;;;;;;10.85;3.95;;;;;;;21.16;29.44;94134.31;1711584;82;21339;-60
2021/11/03 11:35:23;;;;;;;4.78;3.58;;;;;;;21.17;29.58;94131.63;1698031;82;21625;-58
2021/11/03 11:38:30;;;;;;;4.70;2.80;;;;;;;21.36;29.26;94141.39;1701349;82;21061;-60
2021/11/03 11:41:24;;;;;;;4.85;2.25;;;;;;;21.40;29.04;94122.25;1712158;81;21556;-60
2021/11/03 11:44:08;;;;;;;2.55;2.30;;;;;;;21.45;28.51;94124.23;1707039;82;21142;-60
2021/11/03 11:46:36;;;;;;;4.40;2.55;;;;;;;21.60;28.65;94124.47;1698870;81;21130;-60
2021/11/03 11:49:27;;;;;;;5.53;2.40;;;;;;;21.99;28.19;94121.17;1726601;81;21556;-58
2021/11/03 11:52:00;;;;;;;3.83;3.05;;;;;;;22.11;27.52;94125.30;1701490;82;21114;-59
2021/11/03 11:54:38;;;;;;;2.95;2.60;;;;;;;22.17;27.95;94136.52;1679986;83;21067;-58